Time;durP1;ratioP1;P1;durP2;ratioP2;P2;SDS_P1;SDS_P2;PMS_P1;PMS_P2;Temp;Humidity;BMP_temperature;BMP_pressure;BME280_temperature;BME280_humidity;BME280_pressure;Samples;Min_cycle;Max_cycle;Signal;HPM_P1;HPM_P2
2021/09/06 00:02:22;;;;;;;6.57;4.93;;;7.20;99.90;;;;;;5074985;28;20028;-77
2021/09/06 00:04:47;;;;;;;8.57;3.80;;;7.20;99.90;;;;;;5076448;28;20108;-76
2021/09/06 00:07:13;;;;;;;5.13;4.50;;;7.10;99.90;;;;;;5112149;28;20048;-76
2021/09/06 00:09:40;;;;;;;3.85;3.38;;;7.20;99.90;;;;;;5094838;28;20492;-76
2021/09/06 00:12:08;;;;;;;6.10;3.92;;;7.10;99.90;;;;;;5074785;28;20021;-76
2021/09/06 00:14:34;;;;;;;5.90;3.70;;;7.10;99.90;;;;;;5085998;28;20024;-76
2021/09/06 00:17:00;;;;;;;4.78;3.80;;;7.10;99.90;;;;;;5111943;28;20027;-76
2021/09/06 00:19:25;;;;;;;5.88;3.65;;;7.10;99.90;;;;;;5095363;28;20534;-76
2021/09/06 00:21:52;;;;;;;4.45;4.00;;;7.10;99.90;;;;;;5096119;28;20529;-77
2021/09/06 00:24:18;;;;;;;4.63;3.80;;;7.10;99.90;;;;;;5093609;28;20089;-76
2021/09/06 00:26:44;;;;;;;5.55;3.92;;;7.10;99.90;;;;;;5111711;28;20115;-76
2021/09/06 00:29:09;;;;;;;3.75;3.40;;;7.00;99.90;;;;;;5099614;28;20098;-76
2021/09/06 00:31:35;;;;;;;4.35;3.53;;;7.00;99.90;;;;;;5091309;28;20037;-77
2021/09/06 00:34:01;;;;;;;7.30;3.40;;;7.00;99.90;;;;;;5086268;28;20027;-76
2021/09/06 00:36:26;;;;;;;5.70;3.30;;;7.00;99.90;;;;;;5080928;28;20021;-77
2021/09/06 00:38:52;;;;;;;3.95;3.42;;;7.00;99.90;;;;;;5076175;28;20032;-77
2021/09/06 00:41:19;;;;;;;5.55;4.40;;;7.00;99.90;;;;;;5077072;28;20017;-76
2021/09/06 00:43:46;;;;;;;4.38;3.35;;;6.90;99.90;;;;;;5091216;28;20107;-76
2021/09/06 00:46:12;;;;;;;3.60;3.30;;;6.90;99.90;;;;;;5095817;28;20028;-76
2021/09/06 00:48:38;;;;;;;4.63;3.60;;;6.90;99.90;;;;;;5093221;28;20039;-77
2021/09/06 00:51:04;;;;;;;4.65;3.70;;;6.80;99.90;;;;;;5106213;28;20070;-76
2021/09/06 00:53:30;;;;;;;4.75;3.38;;;6.80;99.90;;;;;;5077315;28;20028;-76
2021/09/06 00:55:55;;;;;;;5.78;3.65;;;6.80;99.90;;;;;;5110731;28;20073;-76
2021/09/06 00:58:24;;;;;;;5.80;3.67;;;6.70;99.90;;;;;;5093037;28;20020;-76
2021/09/06 01:00:49;;;;;;;4.72;4.10;;;6.70;99.90;;;;;;5075439;28;20045;-76
2021/09/06 01:03:15;;;;;;;5.85;3.40;;;6.70;99.90;;;;;;5078758;28;20496;-76
2021/09/06 01:05:41;;;;;;;3.78;3.33;;;6.70;99.90;;;;;;5075004;28;20029;-77
2021/09/06 01:08:06;;;;;;;4.82;3.42;;;6.70;99.90;;;;;;5076648;28;20046;-77
2021/09/06 01:10:32;;;;;;;4.28;3.25;;;6.60;99.90;;;;;;5090389;28;20028;-76
2021/09/06 01:12:58;;;;;;;4.10;3.50;;;6.60;99.90;;;;;;5081424;28;20023;-76
2021/09/06 01:15:24;;;;;;;6.13;3.35;;;6.60;99.90;;;;;;5094940;28;20028;-76
2021/09/06 01:17:49;;;;;;;6.50;3.40;;;6.60;99.90;;;;;;5091588;28;20115;-76
2021/09/06 01:20:15;;;;;;;3.13;2.90;;;6.60;99.90;;;;;;5090262;28;20355;-76
2021/09/06 01:22:41;;;;;;;5.80;3.70;;;6.60;99.90;;;;;;5073234;28;20013;-76
2021/09/06 01:25:08;;;;;;;4.20;3.50;;;6.60;99.90;;;;;;5073252;28;20123;-76
2021/09/06 01:27:34;;;;;;;5.82;3.97;;;6.70;99.90;;;;;;5090278;28;20509;-76
2021/09/06 01:29:59;;;;;;;4.82;3.58;;;6.70;99.90;;;;;;5091083;28;20036;-76
2021/09/06 01:32:25;;;;;;;4.93;3.80;;;6.70;99.90;;;;;;5093526;28;20542;-77
2021/09/06 01:34:51;;;;;;;4.13;3.17;;;6.70;99.90;;;;;;5092721;28;20032;-76
2021/09/06 01:37:17;;;;;;;4.07;3.35;;;6.70;99.90;;;;;;5094691;28;20482;-77
2021/09/06 01:39:43;;;;;;;4.03;3.35;;;6.70;99.90;;;;;;5099282;28;20020;-76
2021/09/06 01:42:09;;;;;;;3.72;3.08;;;6.70;99.90;;;;;;5087269;28;20023;-77
2021/09/06 01:44:35;;;;;;;5.40;3.15;;;6.60;99.90;;;;;;5082626;28;20020;-76
2021/09/06 01:47:00;;;;;;;4.22;2.92;;;6.60;99.90;;;;;;5092244;28;20138;-76
2021/09/06 01:49:26;;;;;;;5.07;3.67;;;6.60;99.90;;;;;;5072855;28;20382;-76
2021/09/06 01:51:51;;;;;;;6.05;3.63;;;6.60;99.90;;;;;;5077017;28;20450;-76
2021/09/06 01:54:17;;;;;;;5.32;4.00;;;6.60;99.90;;;;;;5072840;28;20016;-76
2021/09/06 01:56:43;;;;;;;5.40;3.53;;;6.50;99.90;;;;;;5072784;28;20432;-75
2021/09/06 01:59:08;;;;;;;6.32;3.85;;;6.50;99.90;;;;;;5072719;28;20409;-76
2021/09/06 02:01:34;;;;;;;4.47;3.70;;;6.50;99.90;;;;;;5072641;28;20111;-76
2021/09/06 02:04:00;;;;;;;3.95;3.47;;;6.50;99.90;;;;;;5072606;28;20031;-76
2021/09/06 02:06:25;;;;;;;3.58;3.22;;;6.50;99.90;;;;;;5086792;28;20069;-76
2021/09/06 02:08:51;;;;;;;5.93;3.50;;;6.50;99.90;;;;;;5092162;28;20032;-76
2021/09/06 02:11:16;;;;;;;4.65;3.90;;;6.50;99.90;;;;;;5073715;28;20044;-76
2021/09/06 02:13:42;;;;;;;4.45;3.08;;;6.50;99.90;;;;;;5089934;28;20020;-76
2021/09/06 02:16:08;;;;;;;4.10;3.67;;;6.50;99.90;;;;;;5093875;28;20027;-76
2021/09/06 02:18:33;;;;;;;6.68;3.78;;;6.40;99.90;;;;;;5100935;28;20077;-76
2021/09/06 02:20:59;;;;;;;5.63;3.65;;;6.50;99.90;;;;;;5073401;28;20025;-76
2021/09/06 02:23:25;;;;;;;4.35;3.33;;;6.40;99.90;;;;;;5073594;28;20377;-76
2021/09/06 02:25:50;;;;;;;4.82;3.80;;;6.50;99.90;;;;;;5073465;28;20474;-75
2021/09/06 02:28:16;;;;;;;5.13;3.65;;;6.40;99.90;;;;;;5074623;28;20382;-75
2021/09/06 02:30:42;;;;;;;5.07;3.50;;;6.40;99.90;;;;;;5093239;28;20115;-76
2021/09/06 02:33:07;;;;;;;4.43;3.83;;;6.40;99.90;;;;;;5109389;28;20058;-76
2021/09/06 02:35:33;;;;;;;5.22;3.88;;;6.40;99.90;;;;;;5093353;28;20081;-75
2021/09/06 02:37:59;;;;;;;7.00;4.35;;;6.40;99.90;;;;;;5090800;28;20579;-76
2021/09/06 02:40:25;;;;;;;6.00;3.67;;;6.40;99.90;;;;;;5074553;28;20478;-76
2021/09/06 02:42:51;;;;;;;7.53;4.35;;;6.40;99.90;;;;;;5087945;28;20130;-77
2021/09/06 02:45:17;;;;;;;3.97;3.13;;;6.40;99.90;;;;;;5109184;28;20027;-76
2021/09/06 02:47:45;;;;;;;6.18;3.75;;;6.40;99.90;;;;;;5083785;28;20029;-76
2021/09/06 02:50:11;;;;;;;6.05;3.88;;;6.30;99.90;;;;;;5090589;28;20082;-76
2021/09/06 02:52:36;;;;;;;6.47;3.80;;;6.30;99.90;;;;;;5091984;28;20433;-76
2021/09/06 02:55:03;;;;;;;4.50;3.72;;;6.30;99.90;;;;;;5093525;28;20051;-76
2021/09/06 02:57:28;;;;;;;4.68;4.07;;;6.30;99.90;;;;;;5082529;28;20055;-76
2021/09/06 02:59:54;;;;;;;5.78;4.07;;;6.30;99.90;;;;;;5071614;28;20052;-76
2021/09/06 03:02:19;;;;;;;4.97;3.30;;;6.30;99.90;;;;;;5071810;28;20024;-76
2021/09/06 03:04:45;;;;;;;4.40;4.00;;;6.20;99.90;;;;;;5079220;28;20070;-76
2021/09/06 03:07:11;;;;;;;6.60;4.18;;;6.20;99.90;;;;;;5095028;28;20020;-77
2021/09/06 03:09:36;;;;;;;4.32;3.65;;;6.20;99.90;;;;;;5072696;28;20029;-76
2021/09/06 03:12:03;;;;;;;7.95;4.30;;;6.20;99.90;;;;;;5072855;28;20032;-76
2021/09/06 03:14:29;;;;;;;8.15;4.15;;;6.20;99.90;;;;;;5087327;28;20038;-76
2021/09/06 03:16:54;;;;;;;6.35;4.07;;;6.20;99.90;;;;;;5092661;28;20024;-76
2021/09/06 03:19:20;;;;;;;5.28;4.10;;;6.20;99.90;;;;;;5092988;28;20028;-76
2021/09/06 03:21:46;;;;;;;4.82;4.32;;;6.20;99.90;;;;;;5072932;28;20021;-77
2021/09/06 03:24:12;;;;;;;5.05;4.00;;;6.20;99.90;;;;;;5072926;28;20036;-76
2021/09/06 03:26:38;;;;;;;5.13;4.10;;;6.10;99.90;;;;;;5082756;28;20031;-77
2021/09/06 03:29:04;;;;;;;7.03;5.38;;;6.10;99.90;;;;;;5080088;28;20154;-76
2021/09/06 03:31:32;;;;;;;5.43;4.30;;;6.10;99.90;;;;;;5075044;28;20082;-76
2021/09/06 03:33:58;;;;;;;4.90;3.95;;;6.10;99.90;;;;;;5084487;28;20064;-76
2021/09/06 03:36:24;;;;;;;7.82;4.68;;;6.10;99.90;;;;;;5075594;28;20114;-76
2021/09/06 03:38:51;;;;;;;5.47;4.32;;;6.10;99.90;;;;;;5077535;28;20032;-76
2021/09/06 03:41:17;;;;;;;5.65;4.53;;;6.10;99.90;;;;;;5089340;28;20424;-75
2021/09/06 03:43:43;;;;;;;5.53;5.03;;;6.10;99.90;;;;;;5099461;28;20024;-76
2021/09/06 03:46:08;;;;;;;6.18;4.75;;;6.10;99.90;;;;;;5078162;28;20162;-75
2021/09/06 03:48:34;;;;;;;5.80;5.20;;;6.10;99.90;;;;;;5091285;28;20055;-76
2021/09/06 03:51:00;;;;;;;5.35;4.85;;;6.10;99.90;;;;;;5108241;28;20474;-76
2021/09/06 03:53:25;;;;;;;4.90;4.00;;;6.10;99.90;;;;;;5075887;28;20424;-76
2021/09/06 03:55:51;;;;;;;5.20;4.50;;;6.10;99.90;;;;;;5076749;28;20020;-75
2021/09/06 03:58:17;;;;;;;7.55;5.43;;;6.20;99.90;;;;;;5108021;28;20070;-77
2021/09/06 04:00:42;;;;;;;7.65;4.47;;;6.10;99.90;;;;;;5092409;28;20020;-76
2021/09/06 04:03:08;;;;;;;5.55;5.05;;;6.10;99.90;;;;;;5092586;28;20021;-76
2021/09/06 04:05:34;;;;;;;6.50;5.00;;;6.10;99.90;;;;;;5100948;28;20029;-76
2021/09/06 04:07:59;;;;;;;5.90;4.85;;;6.10;99.90;;;;;;5072349;28;20028;-76
2021/09/06 04:10:25;;;;;;;8.20;6.15;;;6.10;99.90;;;;;;5070893;28;20040;-76
2021/09/06 04:12:51;;;;;;;5.60;5.03;;;6.10;99.90;;;;;;5083970;28;20077;-76
2021/09/06 04:15:16;;;;;;;5.90;5.25;;;6.10;99.90;;;;;;5091017;28;20437;-76
2021/09/06 04:17:42;;;;;;;4.70;4.28;;;6.10;99.90;;;;;;5092290;28;20024;-75
2021/09/06 04:20:09;;;;;;;6.75;4.95;;;6.10;99.90;;;;;;5092395;28;20027;-75
2021/09/06 04:22:35;;;;;;;6.63;5.22;;;6.10;99.90;;;;;;5092288;28;20526;-76
2021/09/06 04:25:02;;;;;;;5.60;5.10;;;6.20;99.90;;;;;;5108112;28;20366;-75
2021/09/06 04:27:28;;;;;;;6.55;5.30;;;6.20;99.90;;;;;;5092376;28;20056;-75
2021/09/06 04:29:54;;;;;;;12.05;6.30;;;6.20;99.90;;;;;;5109531;28;20622;-75
2021/09/06 04:32:20;;;;;;;8.55;5.93;;;6.20;99.90;;;;;;5083105;28;20119;-75
2021/09/06 04:34:45;;;;;;;7.22;5.28;;;6.20;99.90;;;;;;5085251;28;20115;-75
2021/09/06 04:37:11;;;;;;;6.32;5.28;;;6.20;99.90;;;;;;5081393;28;20040;-75
2021/09/06 04:39:37;;;;;;;7.18;4.88;;;6.20;99.90;;;;;;5080799;28;20020;-77
2021/09/06 04:42:02;;;;;;;4.70;4.32;;;6.30;99.90;;;;;;5096282;28;20456;-76
2021/09/06 04:44:28;;;;;;;7.13;5.50;;;6.40;99.90;;;;;;5093081;28;20024;-76
2021/09/06 04:46:54;;;;;;;5.20;4.63;;;6.40;99.90;;;;;;5092576;28;20068;-76
2021/09/06 04:49:19;;;;;;;4.47;4.07;;;6.50;99.90;;;;;;5108876;28;20500;-75
2021/09/06 04:51:46;;;;;;;5.05;4.20;;;6.60;99.90;;;;;;5108936;28;20039;-76
2021/09/06 04:54:11;;;;;;;6.85;4.57;;;6.60;99.90;;;;;;5108033;28;20500;-76
2021/09/06 04:56:37;;;;;;;7.28;5.03;;;6.70;99.90;;;;;;5089451;28;20405;-76
2021/09/06 04:59:03;;;;;;;5.57;4.43;;;6.70;99.90;;;;;;5105234;28;20027;-76
2021/09/06 05:01:30;;;;;;;5.22;3.70;;;6.80;99.90;;;;;;5081917;28;20066;-76
2021/09/06 05:03:55;;;;;;;4.22;3.05;;;6.90;99.90;;;;;;5088863;28;20028;-77
2021/09/06 05:06:21;;;;;;;5.40;3.35;;;7.00;99.90;;;;;;5093783;28;20116;-76
2021/09/06 05:08:46;;;;;;;4.75;3.15;;;7.10;99.90;;;;;;5074148;28;20050;-76
2021/09/06 05:11:12;;;;;;;4.93;3.95;;;7.30;99.90;;;;;;5074197;28;20117;-76
2021/09/06 05:13:38;;;;;;;5.80;4.00;;;7.40;99.90;;;;;;5083722;28;20355;-77
2021/09/06 05:16:04;;;;;;;3.63;3.33;;;7.50;99.90;;;;;;5072297;28;20166;-76
2021/09/06 05:18:29;;;;;;;5.80;3.80;;;7.60;99.90;;;;;;5075939;28;20111;-77
2021/09/06 05:20:55;;;;;;;3.72;3.00;;;7.80;99.90;;;;;;5074781;28;20028;-77
2021/09/06 05:23:21;;;;;;;4.90;3.45;;;7.90;99.90;;;;;;5094451;28;20028;-77
2021/09/06 05:25:47;;;;;;;5.13;3.20;;;8.10;99.90;;;;;;5086826;28;20028;-77
2021/09/06 05:28:13;;;;;;;6.57;3.30;;;8.30;99.90;;;;;;5103218;28;20086;-76
2021/09/06 05:30:39;;;;;;;3.22;2.90;;;8.50;99.90;;;;;;5091707;28;20032;-77
2021/09/06 05:33:04;;;;;;;5.30;3.67;;;8.60;99.90;;;;;;5091360;28;20436;-76
2021/09/06 05:35:30;;;;;;;3.42;3.13;;;8.70;99.90;;;;;;5099015;28;20469;-79
2021/09/06 05:37:56;;;;;;;3.53;3.15;;;8.90;99.90;;;;;;5091320;28;20031;-79
2021/09/06 05:40:21;;;;;;;5.70;3.08;;;9.00;99.90;;;;;;5091956;28;20615;-78
2021/09/06 05:42:47;;;;;;;3.70;3.38;;;9.20;99.90;;;;;;5093947;28;20024;-79
2021/09/06 05:45:13;;;;;;;6.03;3.50;;;9.30;99.90;;;;;;5076084;28;20103;-78
2021/09/06 05:47:38;;;;;;;5.07;3.17;;;9.50;99.90;;;;;;5090471;28;20017;-79
2021/09/06 05:50:04;;;;;;;3.20;2.65;;;9.60;99.90;;;;;;5091247;28;20047;-78
2021/09/06 05:52:30;;;;;;;3.83;3.38;;;9.70;99.90;;;;;;5091916;28;20381;-79
2021/09/06 05:54:56;;;;;;;3.97;2.92;;;9.90;99.90;;;;;;5090396;28;20115;-79
2021/09/06 05:57:23;;;;;;;4.25;2.70;;;10.00;99.90;;;;;;5091951;28;20028;-78
2021/09/06 05:59:49;;;;;;;6.20;3.92;;;10.20;99.90;;;;;;5090107;28;20027;-79
2021/09/06 06:02:14;;;;;;;4.68;3.05;;;10.30;99.90;;;;;;5092405;28;20025;-78
2021/09/06 06:04:40;;;;;;;3.22;2.92;;;10.50;99.90;;;;;;5091751;28;20032;-78
2021/09/06 06:07:06;;;;;;;3.00;2.70;;;10.60;99.90;;;;;;5107219;28;20076;-78
2021/09/06 06:09:31;;;;;;;4.57;3.28;;;10.80;99.90;;;;;;5088991;28;20027;-77
2021/09/06 06:11:57;;;;;;;4.47;3.08;;;11.00;99.90;;;;;;5092761;28;20496;-79
2021/09/06 06:14:24;;;;;;;2.78;2.58;;;11.10;99.90;;;;;;5091704;28;20016;-78
2021/09/06 06:16:50;;;;;;;3.85;2.50;;;11.20;99.90;;;;;;5090322;28;20111;-79
2021/09/06 06:19:16;;;;;;;3.88;2.85;;;11.30;99.90;;;;;;5092797;28;20106;-79
2021/09/06 06:21:41;;;;;;;2.85;2.38;;;11.50;99.90;;;;;;5097859;28;20020;-79
2021/09/06 06:24:07;;;;;;;3.47;2.75;;;11.60;99.90;;;;;;5092831;28;20020;-79
2021/09/06 06:26:32;;;;;;;4.88;2.85;;;11.70;99.90;;;;;;5086534;28;20024;-78
2021/09/06 06:28:58;;;;;;;3.05;2.28;;;11.70;99.90;;;;;;5082312;28;20115;-78
2021/09/06 06:31:24;;;;;;;3.00;2.55;;;11.90;99.90;;;;;;5100721;28;20044;-78
2021/09/06 06:33:50;;;;;;;3.58;2.55;;;12.00;99.90;;;;;;5079955;28;20028;-78
2021/09/06 06:36:16;;;;;;;2.92;2.00;;;12.20;99.90;;;;;;5107190;28;20103;-78
2021/09/06 06:38:42;;;;;;;5.88;2.17;;;12.40;97.90;;;;;;5098735;28;20117;-78
2021/09/06 06:41:07;;;;;;;2.92;2.38;;;12.50;94.70;;;;;;5089831;28;20107;-77
2021/09/06 06:43:33;;;;;;;2.88;2.30;;;12.70;97.90;;;;;;5091724;28;20366;-79
2021/09/06 06:45:59;;;;;;;2.63;2.35;;;12.70;94.70;;;;;;5095438;28;20021;-77
2021/09/06 06:48:24;;;;;;;3.97;2.47;;;12.80;92.40;;;;;;5080288;28;20102;-78
2021/09/06 06:50:50;;;;;;;4.18;2.38;;;13.00;92.20;;;;;;5108867;28;20129;-78
2021/09/06 06:53:16;;;;;;;3.75;2.75;;;13.10;93.70;;;;;;5088994;28;20025;-78
2021/09/06 06:55:42;;;;;;;4.38;2.55;;;13.30;96.50;;;;;;5081912;28;20119;-78
2021/09/06 06:58:08;;;;;;;3.97;2.40;;;13.50;95.60;;;;;;5106729;28;20035;-78
2021/09/06 07:00:34;;;;;;;2.92;1.52;;;13.60;86.60;;;;;;5089444;28;20016;-78
2021/09/06 07:03:00;;;;;;;4.03;2.13;;;13.80;84.60;;;;;;5078955;28;20020;-78
2021/09/06 07:05:26;;;;;;;2.67;1.95;;;13.90;85.70;;;;;;5091695;28;20034;-78
2021/09/06 07:07:51;;;;;;;3.00;2.38;;;14.00;84.20;;;;;;5071602;28;20107;-78
2021/09/06 07:10:17;;;;;;;2.70;1.80;;;14.20;84.10;;;;;;5072822;28;20047;-78
2021/09/06 07:12:43;;;;;;;2.83;1.98;;;14.30;83.50;;;;;;5077714;28;20389;-78
2021/09/06 07:15:10;;;;;;;1.70;1.60;;;14.40;80.20;;;;;;5085325;28;20024;-78
2021/09/06 07:17:36;;;;;;;3.80;1.95;;;14.50;74.70;;;;;;5072842;28;20025;-78
2021/09/06 07:20:03;;;;;;;1.73;1.63;;;14.60;75.90;;;;;;5087238;28;20127;-78
2021/09/06 07:22:29;;;;;;;2.25;1.90;;;14.70;74.30;;;;;;5093166;28;20492;-79
2021/09/06 07:24:55;;;;;;;2.55;1.92;;;14.70;72.70;;;;;;5108648;28;20036;-78
2021/09/06 07:27:21;;;;;;;2.63;1.42;;;14.80;73.10;;;;;;5086859;28;20016;-78
2021/09/06 07:29:47;;;;;;;2.78;2.42;;;14.80;73.50;;;;;;5086091;28;20039;-78
2021/09/06 07:32:13;;;;;;;7.57;2.13;;;14.90;76.10;;;;;;5083604;28;20029;-78
2021/09/06 07:34:38;;;;;;;3.78;1.48;;;15.00;73.00;;;;;;5075745;28;20055;-78
2021/09/06 07:37:05;;;;;;;2.60;1.40;;;15.10;72.80;;;;;;5108497;28;20028;-78
2021/09/06 07:39:32;;;;;;;1.60;1.50;;;15.20;71.50;;;;;;5089690;28;20486;-78
2021/09/06 07:41:58;;;;;;;2.80;1.40;;;15.10;66.10;;;;;;5092131;28;20020;-78
2021/09/06 07:44:24;;;;;;;1.80;1.70;;;15.10;65.20;;;;;;5091633;28;20032;-78
2021/09/06 07:46:51;;;;;;;3.78;1.58;;;15.30;66.30;;;;;;5092574;28;20050;-78
2021/09/06 07:49:17;;;;;;;2.13;1.20;;;15.30;63.60;;;;;;5089888;28;20054;-78
2021/09/06 07:51:43;;;;;;;2.55;1.95;;;15.30;61.90;;;;;;5104655;28;20489;-79
2021/09/06 07:54:09;;;;;;;2.33;1.65;;;15.30;61.40;;;;;;5078672;28;20494;-78
2021/09/06 07:56:35;;;;;;;1.42;1.33;;;15.30;59.90;;;;;;5108300;28;20047;-78
2021/09/06 07:59:00;;;;;;;2.80;1.20;;;15.40;61.30;;;;;;5088620;28;20432;-78
2021/09/06 08:01:26;;;;;;;1.23;1.10;;;15.40;58.00;;;;;;5108224;28;20016;-78
2021/09/06 08:03:52;;;;;;;1.88;1.23;;;15.50;60.80;;;;;;5092172;28;20036;-78
2021/09/06 08:06:17;;;;;;;2.33;1.42;;;15.60;60.80;;;;;;5096225;28;20028;-78
2021/09/06 08:08:43;;;;;;;4.15;1.67;;;15.60;57.70;;;;;;5095085;28;20020;-78
2021/09/06 08:11:09;;;;;;;5.68;1.90;;;15.80;59.90;;;;;;5112078;28;20086;-78
2021/09/06 08:13:34;;;;;;;3.78;1.63;;;15.90;59.90;;;;;;5080685;28;20060;-78
2021/09/06 08:16:00;;;;;;;2.60;1.35;;;15.90;59.00;;;;;;5087061;28;20425;-78
2021/09/06 08:18:25;;;;;;;1.75;1.23;;;15.90;57.40;;;;;;5105485;28;20025;-79
2021/09/06 08:20:51;;;;;;;2.58;1.50;;;15.80;57.00;;;;;;5092167;28;20028;-78
2021/09/06 08:23:17;;;;;;;2.53;1.30;;;15.70;57.20;;;;;;5110696;28;20024;-79
2021/09/06 08:25:43;;;;;;;3.10;1.48;;;15.60;57.60;;;;;;5095514;28;20050;-78
2021/09/06 08:28:08;;;;;;;2.15;1.27;;;15.70;60.40;;;;;;5093862;28;20024;-78
2021/09/06 08:30:34;;;;;;;4.22;2.05;;;15.80;57.70;;;;;;5096314;28;20032;-78
2021/09/06 08:33:02;;;;;;;2.92;1.90;;;15.70;57.20;;;;;;5093048;28;20039;-78
2021/09/06 08:35:27;;;;;;;2.17;1.40;;;15.80;56.50;;;;;;5093033;28;20509;-78
2021/09/06 08:37:53;;;;;;;4.25;1.55;;;15.80;57.30;;;;;;5092269;28;20098;-78
2021/09/06 08:40:19;;;;;;;1.75;1.50;;;15.90;56.00;;;;;;5092981;28;20028;-78
2021/09/06 08:42:45;;;;;;;2.28;1.65;;;15.90;56.80;;;;;;5080862;28;20012;-78
2021/09/06 08:45:12;;;;;;;3.85;1.30;;;16.00;57.00;;;;;;5078383;28;20100;-78
2021/09/06 08:47:38;;;;;;;1.70;1.30;;;16.10;57.20;;;;;;5075501;28;20489;-78
2021/09/06 08:50:08;;;;;;;1.48;1.38;;;16.00;56.00;;;;;;5077157;28;20048;-78
2021/09/06 08:52:34;;;;;;;2.58;1.70;;;16.10;57.20;;;;;;5087114;28;20020;-78
2021/09/06 08:55:00;;;;;;;2.15;1.52;;;16.10;56.60;;;;;;5089081;28;20074;-78
2021/09/06 08:57:25;;;;;;;2.08;1.60;;;16.20;56.30;;;;;;5074053;28;20074;-78
2021/09/06 08:59:59;;;;;;;3.15;1.52;;;16.30;57.50;;;;;;5074535;28;20501;-78
2021/09/06 09:02:25;;;;;;;3.97;1.65;;;16.20;56.80;;;;;;5092915;28;20020;-78
2021/09/06 09:04:59;;;;;;;1.45;1.27;;;16.20;56.80;;;;;;5094008;28;20440;-78
2021/09/06 09:07:27;;;;;;;2.38;1.48;;;16.30;57.10;;;;;;5095160;28;20028;-78
2021/09/06 09:09:52;;;;;;;2.00;1.38;;;16.50;58.40;;;;;;5094605;28;20039;-78
2021/09/06 09:12:20;;;;;;;1.60;1.50;;;16.60;56.50;;;;;;5095027;28;20432;-78
2021/09/06 09:14:49;;;;;;;1.63;1.45;;;16.70;56.10;;;;;;5075752;28;20074;-78
2021/09/06 09:17:14;;;;;;;1.35;1.23;;;16.70;55.20;;;;;;5091551;28;20111;-78
2021/09/06 09:19:41;;;;;;;3.30;1.42;;;16.60;55.10;;;;;;5086156;28;20123;-78
2021/09/06 09:22:12;;;;;;;1.73;1.15;;;16.60;53.80;;;;;;5093855;28;20409;-78
2021/09/06 09:24:39;;;;;;;2.05;1.05;;;16.60;54.10;;;;;;5094910;28;20424;-78
2021/09/06 09:27:11;;;;;;;3.63;1.63;;;16.70;54.90;;;;;;5093723;28;20023;-78
2021/09/06 09:29:39;;;;;;;;;;;16.70;54.50;;;;;;5087059;28;20020;-78
2021/09/06 09:32:08;;;;;;;2.75;2.08;;;16.70;53.50;;;;;;5074692;28;19912;-78
2021/09/06 09:34:39;;;;;;;3.10;1.70;;;16.70;53.80;;;;;;5093539;28;20020;-78
2021/09/06 09:37:05;;;;;;;3.38;1.90;;;16.60;54.00;;;;;;5082018;28;20118;-78
2021/09/06 09:39:33;;;;;;;2.22;1.75;;;16.60;52.60;;;;;;5074589;28;20048;-78
2021/09/06 09:42:17;;;;;;;4.18;3.08;;;16.70;54.10;;;;;;5073019;28;20482;-78
2021/09/06 09:44:47;;;;;;;2.55;1.88;;;16.80;54.20;;;;;;5074347;28;20024;-78
2021/09/06 09:47:14;;;;;;;2.75;1.35;;;16.80;55.20;;;;;;5089675;28;20473;-78
2021/09/06 09:49:42;;;;;;;4.75;2.38;;;16.80;53.50;;;;;;5094032;28;20095;-78
2021/09/06 09:52:08;;;;;;;2.50;1.70;;;16.90;55.00;;;;;;5110222;28;20032;-78
2021/09/06 09:54:34;;;;;;;2.15;1.77;;;16.80;53.70;;;;;;5093961;28;20028;-78
2021/09/06 09:57:00;;;;;;;4.03;2.15;;;16.90;55.60;;;;;;5094389;28;20020;-78
2021/09/06 09:59:25;;;;;;;2.42;1.48;;;16.90;54.20;;;;;;5094309;28;20097;-78
2021/09/06 10:02:17;;;;;;;1.50;1.17;;;16.90;55.10;;;;;;5081230;28;20031;-78
2021/09/06 10:05:05;;;;;;;2.88;1.60;;;17.00;53.90;;;;;;5076075;28;20024;-78
2021/09/06 10:07:34;;;;;;;2.28;1.88;;;17.00;53.40;;;;;;5092749;28;20020;-78
2021/09/06 10:10:18;;;;;;;3.45;1.92;;;17.10;53.40;;;;;;5109750;28;20020;-78
2021/09/06 10:13:01;;;;;;;7.90;2.00;;;17.20;54.20;;;;;;5109782;28;20047;-78
2021/09/06 10:15:27;;;;;;;2.20;1.70;;;17.20;54.00;;;;;;5109307;28;20020;-78
2021/09/06 10:17:53;;;;;;;5.15;1.55;;;17.40;55.50;;;;;;5093955;28;20027;-79
2021/09/06 10:20:21;;;;;;;3.70;1.65;;;17.50;54.40;;;;;;5093973;28;20055;-78
2021/09/06 10:23:00;;;;;;;3.58;1.63;;;17.40;53.50;;;;;;5093857;28;20027;-78
2021/09/06 10:25:29;;;;;;;4.28;1.42;;;17.50;52.70;;;;;;5094303;28;20067;-78
2021/09/06 10:28:02;;;;;;;3.28;1.52;;;17.50;53.70;;;;;;5107069;28;20032;-78
2021/09/06 10:30:41;;;;;;;;;;;17.50;52.70;;;;;;5092384;28;20043;-78
2021/09/06 10:33:21;;;;;;;4.55;1.50;;;17.50;53.50;;;;;;5090873;28;19958;-79
2021/09/06 10:35:48;;;;;;;2.80;1.60;;;17.40;52.00;;;;;;5093512;28;20482;-78
2021/09/06 10:38:15;;;;;;;3.22;2.05;;;17.40;52.00;;;;;;5109390;28;20077;-78
2021/09/06 10:40:43;;;;;;;2.10;1.25;;;17.50;52.20;;;;;;5107392;28;20093;-78
2021/09/06 10:43:13;;;;;;;2.05;1.67;;;17.70;52.60;;;;;;5088786;28;20107;-78
2021/09/06 10:45:41;;;;;;;2.28;1.60;;;17.80;51.30;;;;;;5084331;28;20478;-78
2021/09/06 10:48:07;;;;;;;1.45;1.35;;;17.90;52.60;;;;;;5085151;28;20024;-78
2021/09/06 10:50:36;;;;;;;2.65;1.50;;;17.80;50.80;;;;;;5108941;28;20040;-78
2021/09/06 10:53:02;;;;;;;2.30;1.50;;;17.70;49.40;;;;;;5077563;28;20036;-78
2021/09/06 10:55:28;;;;;;;1.85;1.55;;;17.60;51.10;;;;;;5071775;28;20100;-78
2021/09/06 10:57:53;;;;;;;7.82;1.98;;;17.70;50.00;;;;;;5071765;28;20355;-78
2021/09/06 11:00:22;;;;;;;6.10;2.40;;;17.80;51.10;;;;;;5071840;28;20474;-78
2021/09/06 11:02:49;;;;;;;1.27;1.17;;;17.80;51.00;;;;;;5071557;28;20077;-78
2021/09/06 11:05:20;;;;;;;2.42;1.70;;;17.80;49.20;;;;;;5079938;28;20108;-78
2021/09/06 11:07:46;;;;;;;2.80;1.70;;;17.80;48.80;;;;;;5082387;28;20158;-78
2021/09/06 11:10:16;;;;;;;2.63;1.98;;;17.80;49.90;;;;;;5071588;28;20033;-78
2021/09/06 11:12:53;;;;;;;1.77;1.65;;;17.80;49.50;;;;;;5071484;28;20021;-78
2021/09/06 11:15:27;;;;;;;4.57;2.33;;;17.80;49.90;;;;;;5072881;28;20028;-79
2021/09/06 11:18:05;;;;;;;2.80;1.60;;;17.90;50.10;;;;;;5072549;28;20545;-78
2021/09/06 11:20:33;;;;;;;5.75;1.73;;;17.80;50.10;;;;;;5090791;28;20508;-78
2021/09/06 11:23:02;;;;;;;2.60;1.90;;;18.00;51.00;;;;;;5091561;28;20020;-78
2021/09/06 11:25:30;;;;;;;1.90;1.30;;;18.10;50.50;;;;;;5093318;28;20028;-78
2021/09/06 11:28:12;;;;;;;2.97;1.90;;;18.30;51.30;;;;;;5092765;28;20071;-79
2021/09/06 11:30:40;;;;;;;6.93;3.20;;;18.40;52.10;;;;;;5099236;28;20029;-78
2021/09/06 11:33:09;;;;;;;5.28;2.40;;;18.50;51.20;;;;;;5073357;28;20048;-79
2021/09/06 11:35:35;;;;;;;2.67;1.80;;;18.30;50.00;;;;;;5083921;28;20032;-78
2021/09/06 11:38:02;;;;;;;5.22;2.83;;;18.30;51.00;;;;;;5072035;28;20077;-79
2021/09/06 11:40:31;;;;;;;9.82;2.17;;;18.30;49.20;;;;;;5093901;28;20061;-78
2021/09/06 11:42:58;;;;;;;4.70;1.58;;;18.30;49.00;;;;;;5093172;28;20039;-77
2021/09/06 11:45:24;;;;;;;2.60;1.98;;;18.20;49.50;;;;;;5094195;28;20035;-78
2021/09/06 11:47:51;;;;;;;2.08;1.70;;;18.10;49.60;;;;;;5091373;28;20381;-78
2021/09/06 11:50:19;;;;;;;2.78;1.83;;;18.30;48.50;;;;;;5082263;28;20095;-77
2021/09/06 11:52:46;;;;;;;3.17;1.90;;;18.20;48.50;;;;;;5089723;28;20109;-77
2021/09/06 11:55:17;;;;;;;2.50;1.80;;;18.10;46.90;;;;;;5088958;28;20358;-77
2021/09/06 11:57:44;;;;;;;2.78;1.55;;;18.30;50.30;;;;;;5082701;28;20036;-77
2021/09/06 12:00:11;;;;;;;6.45;1.85;;;18.20;49.20;;;;;;5089419;28;20081;-77
2021/09/06 12:02:51;;;;;;;3.10;1.67;;;18.20;47.50;;;;;;5103664;27;20465;-77
2021/09/06 12:05:17;;;;;;;4.65;2.20;;;18.30;48.80;;;;;;5105879;28;20029;-77
2021/09/06 12:07:46;;;;;;;3.20;1.70;;;18.40;49.50;;;;;;5076197;28;20032;-78
2021/09/06 12:10:26;;;;;;;2.15;1.60;;;18.50;48.00;;;;;;5076069;28;20028;-77
2021/09/06 12:13:03;;;;;;;3.13;1.80;;;18.60;46.90;;;;;;5076141;28;20028;-78
2021/09/06 12:15:31;;;;;;;3.35;2.13;;;18.70;47.00;;;;;;5074838;28;20076;-78
2021/09/06 12:18:11;;;;;;;2.25;1.67;;;18.70;48.00;;;;;;5075206;28;20023;-78
2021/09/06 12:20:40;;;;;;;1.90;1.70;;;18.70;46.70;;;;;;5073038;28;20027;-78
2021/09/06 12:23:11;;;;;;;3.75;2.13;;;18.60;45.60;;;;;;5074445;28;20035;-78
2021/09/06 12:25:38;;;;;;;2.47;1.87;;;18.60;46.20;;;;;;5087977;28;20433;-78
2021/09/06 12:28:14;;;;;;;3.08;1.65;;;18.80;48.40;;;;;;5084716;28;20039;-78
2021/09/06 12:30:43;;;;;;;4.55;2.03;;;18.70;47.60;;;;;;5078543;28;20036;-77
2021/09/06 12:33:10;;;;;;;3.38;2.25;;;18.60;46.60;;;;;;5092727;28;20028;-77
2021/09/06 12:35:37;;;;;;;4.88;2.75;;;18.50;46.90;;;;;;5090656;28;20489;-77
2021/09/06 12:38:06;;;;;;;2.58;2.10;;;18.60;47.80;;;;;;5094307;28;20516;-78
2021/09/06 12:40:32;;;;;;;2.55;1.63;;;18.70;48.90;;;;;;5088578;28;20023;-78
2021/09/06 12:42:58;;;;;;;2.17;1.60;;;18.80;48.10;;;;;;5088293;28;20029;-79
2021/09/06 12:45:24;;;;;;;4.18;2.08;;;18.70;46.20;;;;;;5093320;28;20031;-78
2021/09/06 12:47:50;;;;;;;4.13;2.20;;;18.70;47.00;;;;;;5087792;28;20044;-77
2021/09/06 12:50:15;;;;;;;2.88;1.88;;;18.70;47.10;;;;;;5072315;28;20037;-77
2021/09/06 12:52:41;;;;;;;2.20;1.63;;;18.80;46.70;;;;;;5072937;28;20120;-78